หน้าหลัก
METAR-TAF:

METAR-TAF

ท่าอากาศยาน :

นอร์เชอปิง, สวีเดน

ละติจูด: 58-35N, ลองจิจูด: 016-09E, ความสูง: 34 ม.

การสังเกตสภาพอากาศปัจจุบัน

รายงานได้ทำขึ้นเมื่อ 21 นาทีที่แล้ว ณ เวลา 01:20 UTC
ลม 3 นอตจากตะวันตก
อุณหภูมิ 14°C
ความชื้น 94%
ความกดอากาศ 1015 hPa
ทัศนวิสัย 10 กม. หรือมากกว่า

METAR: ESSP 200120Z AUTO 27003KT 9999 NCD 14/13 Q1015

เวลา: 03:41 (01:41 UTC)

การพยากรณ์

รายงานได้ทำขึ้นเมื่อ 11 ชั่วโมงและ 11 นาทีที่แล้ว ณ เวลา 14:30 UTC
การพยากรณ์มีผลตั้งแต่วันที่ 19 ณ เวลา 15 UTC จนถึงวันที่ 19 ณ เวลา 17 UTC
ลม 12 นอตจากตะวันตก
ทัศนวิสัย 10 กม. หรือมากกว่า
ไม่มีเมฆต่ำกว่า 1,500 ม. และไม่มีเมฆคิวมูโลนิมบัส

TAF: ESSP 191430Z 1915/1917 27012KT CAVOK

สังเกตการณ์สภาพอากาศและพยากรณ์อากาศของสนามบินมากกว่า 4000 แห่ง (รายงาน METAR และ TAF).

สถานีที่ดูได้จะแสดงไว้ด้วยจุดสีเหลืองและสีแดงบนแผนที่.

เลื่อนเมาส์ไปเหนือจุดเพื่อดูชื่อสถานี.

แล้วคลิกเพื่อดูสังเกตการณ์และการพยากรณ์สภาพอากาศ.

ในการเปลี่ยนแผนที่: คลิกที่ปุ่มสีเขียวที่มีกากบาทสีดำเพื่อซูมเข้า; ที่ปุ่มสีเขียวที่มีขีดเพื่อซูมออก; หรือที่ลูกศรสีเขียวเพื่อไปยังแผนที่ที่อยู่ติดกัน.


METAR-TAF: